sensor_id;sensor_type;location;lat;lon;timestamp;pressure;altitude;pressure_sealevel;temperature;humidity
51526;BME280;37611;51.794;21.590;2023-02-03T00:03:19;100260.12;;;-0.55;100.00
51526;BME280;37611;51.794;21.590;2023-02-03T00:07:21;100252.91;;;-0.49;100.00
51526;BME280;37611;51.794;21.590;2023-02-03T00:11:22;100258.84;;;-0.39;100.00
51526;BME280;37611;51.794;21.590;2023-02-03T00:15:24;100259.66;;;-0.32;100.00
51526;BME280;37611;51.794;21.590;2023-02-03T00:19:27;100262.68;;;-0.23;100.00
51526;BME280;37611;51.794;21.590;2023-02-03T00:23:28;100266.56;;;-0.22;100.00
51526;BME280;37611;51.794;21.590;2023-02-03T00:27:32;100282.35;;;-0.24;100.00
51526;BME280;37611;51.794;21.590;2023-02-03T00:31:34;100286.73;;;-0.26;100.00
51526;BME280;37611;51.794;21.590;2023-02-03T00:35:37;100283.13;;;-0.23;100.00
51526;BME280;37611;51.794;21.590;2023-02-03T00:39:39;100286.42;;;-0.16;100.00
51526;BME280;37611;51.794;21.590;2023-02-03T00:43:41;100278.18;;;-0.10;100.00
51526;BME280;37611;51.794;21.590;2023-02-03T00:47:43;100275.39;;;-0.02;100.00
51526;BME280;37611;51.794;21.590;2023-02-03T00:51:45;100276.74;;;0.02;100.00
51526;BME280;37611;51.794;21.590;2023-02-03T00:55:47;100280.48;;;-0.01;100.00
51526;BME280;37611;51.794;21.590;2023-02-03T00:59:48;100288.15;;;-0.03;100.00
51526;BME280;37611;51.794;21.590;2023-02-03T01:03:50;100285.03;;;-0.06;100.00
51526;BME280;37611;51.794;21.590;2023-02-03T01:07:52;100288.19;;;-0.10;100.00
51526;BME280;37611;51.794;21.590;2023-02-03T01:11:54;100287.63;;;-0.17;100.00
51526;BME280;37611;51.794;21.590;2023-02-03T01:15:55;100289.25;;;-0.18;100.00
51526;BME280;37611;51.794;21.590;2023-02-03T01:19:57;100291.98;;;-0.17;100.00
51526;BME280;37611;51.794;21.590;2023-02-03T01:23:59;100296.15;;;-0.15;100.00
51526;BME280;37611;51.794;21.590;2023-02-03T01:28:01;100298.40;;;-0.12;100.00
51526;BME280;37611;51.794;21.590;2023-02-03T01:32:03;100304.63;;;-0.09;100.00
51526;BME280;37611;51.794;21.590;2023-02-03T01:36:07;100302.88;;;-0.08;100.00
51526;BME280;37611;51.794;21.590;2023-02-03T01:40:10;100302.72;;;-0.08;100.00
51526;BME280;37611;51.794;21.590;2023-02-03T01:44:35;100304.26;;;-0.12;100.00
51526;BME280;37611;51.794;21.590;2023-02-03T01:48:38;100302.89;;;-0.19;100.00
51526;BME280;37611;51.794;21.590;2023-02-03T01:52:42;100300.63;;;-0.18;100.00
51526;BME280;37611;51.794;21.590;2023-02-03T01:56:50;100296.56;;;-0.16;100.00
51526;BME280;37611;51.794;21.590;2023-02-03T02:00:53;100291.75;;;-0.13;100.00
51526;BME280;37611;51.794;21.590;2023-02-03T02:05:07;100289.69;;;-0.06;100.00
51526;BME280;37611;51.794;21.590;2023-02-03T02:09:10;100292.99;;;-0.04;100.00
51526;BME280;37611;51.794;21.590;2023-02-03T02:13:12;100289.38;;;-0.07;100.00
51526;BME280;37611;51.794;21.590;2023-02-03T02:22:50;100286.75;;;-0.16;100.00
51526;BME280;37611;51.794;21.590;2023-02-03T02:35:15;100282.34;;;-0.25;100.00
51526;BME280;37611;51.794;21.590;2023-02-03T02:48:58;100266.60;;;-0.30;100.00
51526;BME280;37611;51.794;21.590;2023-02-03T02:53:04;100269.58;;;-0.44;100.00
51526;BME280;37611;51.794;21.590;2023-02-03T02:57:09;100272.52;;;-0.55;100.00
51526;BME280;37611;51.794;21.590;2023-02-03T03:01:12;100272.84;;;-0.66;100.00
51526;BME280;37611;51.794;21.590;2023-02-03T03:05:16;100268.95;;;-0.78;100.00
51526;BME280;37611;51.794;21.590;2023-02-03T03:09:25;100272.02;;;-0.84;100.00
51526;BME280;37611;51.794;21.590;2023-02-03T03:13:32;100272.52;;;-0.84;100.00
51526;BME280;37611;51.794;21.590;2023-02-03T03:17:41;100274.82;;;-0.82;100.00
51526;BME280;37611;51.794;21.590;2023-02-03T03:21:48;100279.16;;;-0.76;100.00
51526;BME280;37611;51.794;21.590;2023-02-03T03:26:23;100278.92;;;-0.70;100.00
51526;BME280;37611;51.794;21.590;2023-02-03T03:30:25;100283.42;;;-0.67;100.00
51526;BME280;37611;51.794;21.590;2023-02-03T03:34:28;100276.41;;;-0.68;100.00
51526;BME280;37611;51.794;21.590;2023-02-03T03:39:01;100277.14;;;-0.69;100.00
51526;BME280;37611;51.794;21.590;2023-02-03T03:43:27;100270.82;;;-0.70;100.00
51526;BME280;37611;51.794;21.590;2023-02-03T03:51:53;100262.43;;;-0.64;100.00
51526;BME280;37611;51.794;21.590;2023-02-03T03:55:59;100266.75;;;-0.64;100.00
51526;BME280;37611;51.794;21.590;2023-02-03T04:00:05;100266.76;;;-0.64;100.00
51526;BME280;37611;51.794;21.590;2023-02-03T04:04:10;100266.77;;;-0.68;100.00
51526;BME280;37611;51.794;21.590;2023-02-03T04:08:12;100275.99;;;-0.74;100.00
51526;BME280;37611;51.794;21.590;2023-02-03T04:12:22;100275.35;;;-0.82;100.00
51526;BME280;37611;51.794;21.590;2023-02-03T04:16:24;100274.30;;;-0.89;100.00
51526;BME280;37611;51.794;21.590;2023-02-03T04:20:27;100275.44;;;-0.91;100.00
51526;BME280;37611;51.794;21.590;2023-02-03T04:24:29;100273.91;;;-0.95;100.00
51526;BME280;37611;51.794;21.590;2023-02-03T04:28:30;100270.98;;;-0.95;100.00
51526;BME280;37611;51.794;21.590;2023-02-03T04:32:32;100274.95;;;-0.95;100.00
51526;BME280;37611;51.794;21.590;2023-02-03T04:36:35;100275.08;;;-0.94;100.00
51526;BME280;37611;51.794;21.590;2023-02-03T04:40:37;100278.50;;;-0.98;100.00
51526;BME280;37611;51.794;21.590;2023-02-03T04:44:39;100276.69;;;-1.07;100.00
51526;BME280;37611;51.794;21.590;2023-02-03T04:48:41;100281.56;;;-1.15;100.00
51526;BME280;37611;51.794;21.590;2023-02-03T04:52:42;100286.79;;;-1.25;100.00
51526;BME280;37611;51.794;21.590;2023-02-03T04:56:44;100291.50;;;-1.30;100.00
51526;BME280;37611;51.794;21.590;2023-02-03T05:00:46;100287.95;;;-1.35;100.00
51526;BME280;37611;51.794;21.590;2023-02-03T05:04:48;100286.15;;;-1.37;100.00
51526;BME280;37611;51.794;21.590;2023-02-03T05:08:50;100284.60;;;-1.40;100.00
51526;BME280;37611;51.794;21.590;2023-02-03T05:12:51;100281.65;;;-1.44;100.00
51526;BME280;37611;51.794;21.590;2023-02-03T05:16:53;100281.90;;;-1.46;100.00
51526;BME280;37611;51.794;21.590;2023-02-03T05:20:55;100274.29;;;-1.48;100.00
51526;BME280;37611;51.794;21.590;2023-02-03T05:24:56;100272.27;;;-1.53;100.00
51526;BME280;37611;51.794;21.590;2023-02-03T05:28:58;100272.16;;;-1.58;100.00
51526;BME280;37611;51.794;21.590;2023-02-03T05:33:00;100271.73;;;-1.64;100.00
51526;BME280;37611;51.794;21.590;2023-02-03T05:37:01;100269.35;;;-1.68;100.00
51526;BME280;37611;51.794;21.590;2023-02-03T05:41:04;100266.92;;;-1.72;100.00
51526;BME280;37611;51.794;21.590;2023-02-03T05:45:24;100259.47;;;-1.74;100.00
51526;BME280;37611;51.794;21.590;2023-02-03T05:49:26;100259.10;;;-1.77;100.00
51526;BME280;37611;51.794;21.590;2023-02-03T05:53:28;100260.67;;;-1.82;100.00
51526;BME280;37611;51.794;21.590;2023-02-03T05:57:29;100264.02;;;-1.88;100.00
51526;BME280;37611;51.794;21.590;2023-02-03T06:01:32;100264.36;;;-1.91;100.00
51526;BME280;37611;51.794;21.590;2023-02-03T06:05:35;100266.58;;;-1.95;100.00
51526;BME280;37611;51.794;21.590;2023-02-03T06:09:41;100269.09;;;-2.02;100.00
51526;BME280;37611;51.794;21.590;2023-02-03T06:13:42;100262.85;;;-2.04;100.00
51526;BME280;37611;51.794;21.590;2023-02-03T06:17:45;100260.00;;;-2.06;100.00
51526;BME280;37611;51.794;21.590;2023-02-03T06:21:47;100256.86;;;-2.05;100.00
51526;BME280;37611;51.794;21.590;2023-02-03T06:25:50;100253.25;;;-2.00;100.00
51526;BME280;37611;51.794;21.590;2023-02-03T06:29:52;100245.44;;;-1.90;100.00
51526;BME280;37611;51.794;21.590;2023-02-03T06:33:54;100238.76;;;-1.83;100.00
51526;BME280;37611;51.794;21.590;2023-02-03T06:37:57;100238.37;;;-1.78;100.00
51526;BME280;37611;51.794;21.590;2023-02-03T06:41:59;100230.90;;;-1.68;100.00
51526;BME280;37611;51.794;21.590;2023-02-03T06:46:01;100229.77;;;-1.62;100.00
51526;BME280;37611;51.794;21.590;2023-02-03T06:50:03;100224.52;;;-1.64;100.00
51526;BME280;37611;51.794;21.590;2023-02-03T06:54:04;100220.61;;;-1.65;100.00
51526;BME280;37611;51.794;21.590;2023-02-03T06:58:06;100213.27;;;-1.65;100.00
51526;BME280;37611;51.794;21.590;2023-02-03T07:02:10;100208.65;;;-1.62;100.00
51526;BME280;37611;51.794;21.590;2023-02-03T07:06:12;100207.39;;;-1.57;100.00
51526;BME280;37611;51.794;21.590;2023-02-03T07:10:15;100192.48;;;-1.47;100.00
51526;BME280;37611;51.794;21.590;2023-02-03T07:14:17;100191.58;;;-1.35;100.00
51526;BME280;37611;51.794;21.590;2023-02-03T07:18:18;100192.89;;;-1.26;100.00
51526;BME280;37611;51.794;21.590;2023-02-03T07:22:24;100193.16;;;-1.21;100.00
51526;BME280;37611;51.794;21.590;2023-02-03T07:26:26;100188.30;;;-1.06;100.00
51526;BME280;37611;51.794;21.590;2023-02-03T07:30:28;100190.73;;;-0.92;100.00
51526;BME280;37611;51.794;21.590;2023-02-03T07:34:29;100180.33;;;-0.83;100.00
51526;BME280;37611;51.794;21.590;2023-02-03T07:38:31;100173.35;;;-0.67;100.00
51526;BME280;37611;51.794;21.590;2023-02-03T07:42:33;100170.58;;;-0.46;100.00
51526;BME280;37611;51.794;21.590;2023-02-03T07:46:35;100164.40;;;-0.30;100.00
51526;BME280;37611;51.794;21.590;2023-02-03T07:50:40;100158.11;;;-0.02;100.00
51526;BME280;37611;51.794;21.590;2023-02-03T07:54:41;100146.92;;;0.27;100.00
51526;BME280;37611;51.794;21.590;2023-02-03T07:58:43;100136.92;;;0.53;100.00
51526;BME280;37611;51.794;21.590;2023-02-03T08:02:45;100128.58;;;0.76;100.00
51526;BME280;37611;51.794;21.590;2023-02-03T08:06:47;100121.63;;;0.83;100.00
51526;BME280;37611;51.794;21.590;2023-02-03T08:10:50;100113.80;;;0.81;100.00
51526;BME280;37611;51.794;21.590;2023-02-03T08:14:52;100106.02;;;0.96;100.00
51526;BME280;37611;51.794;21.590;2023-02-03T08:18:53;100099.69;;;1.10;100.00
51526;BME280;37611;51.794;21.590;2023-02-03T08:22:55;100101.81;;;1.33;100.00
51526;BME280;37611;51.794;21.590;2023-02-03T08:26:57;100107.05;;;1.49;100.00
51526;BME280;37611;51.794;21.590;2023-02-03T08:31:00;100100.98;;;1.72;100.00
51526;BME280;37611;51.794;21.590;2023-02-03T08:35:02;100091.63;;;1.59;99.68
51526;BME280;37611;51.794;21.590;2023-02-03T08:39:06;100087.27;;;1.59;99.84
51526;BME280;37611;51.794;21.590;2023-02-03T08:43:07;100086.88;;;1.75;97.73
51526;BME280;37611;51.794;21.590;2023-02-03T08:47:10;100086.75;;;1.88;96.90
51526;BME280;37611;51.794;21.590;2023-02-03T08:51:14;100084.62;;;2.14;96.99
51526;BME280;37611;51.794;21.590;2023-02-03T08:55:17;100068.59;;;2.32;97.42
51526;BME280;37611;51.794;21.590;2023-02-03T08:59:18;100068.23;;;2.30;94.58
51526;BME280;37611;51.794;21.590;2023-02-03T09:03:20;100065.27;;;2.35;93.14
51526;BME280;37611;51.794;21.590;2023-02-03T09:07:22;100062.56;;;2.40;93.96
51526;BME280;37611;51.794;21.590;2023-02-03T09:11:24;100056.71;;;2.50;89.01
51526;BME280;37611;51.794;21.590;2023-02-03T09:15:26;100043.54;;;2.43;90.01
51526;BME280;37611;51.794;21.590;2023-02-03T09:19:28;100034.61;;;2.34;85.82
51526;BME280;37611;51.794;21.590;2023-02-03T09:23:30;100020.83;;;2.25;85.73
51526;BME280;37611;51.794;21.590;2023-02-03T09:27:32;100013.14;;;2.32;85.76
51526;BME280;37611;51.794;21.590;2023-02-03T09:31:34;99999.41;;;2.36;82.65
51526;BME280;37611;51.794;21.590;2023-02-03T09:35:36;99991.81;;;2.25;82.88
51526;BME280;37611;51.794;21.590;2023-02-03T09:39:37;99984.70;;;2.41;82.00
51526;BME280;37611;51.794;21.590;2023-02-03T09:43:47;99981.98;;;2.35;80.97
51526;BME280;37611;51.794;21.590;2023-02-03T09:47:53;99973.30;;;2.33;81.02
51526;BME280;37611;51.794;21.590;2023-02-03T09:52:04;99974.07;;;2.35;81.71
51526;BME280;37611;51.794;21.590;2023-02-03T09:56:19;99965.12;;;2.29;80.17
51526;BME280;37611;51.794;21.590;2023-02-03T10:00:29;99963.39;;;2.05;79.11
51526;BME280;37611;51.794;21.590;2023-02-03T10:04:43;99955.00;;;1.77;78.89
51526;BME280;37611;51.794;21.590;2023-02-03T10:25:42;99894.75;;;1.53;80.92
51526;BME280;37611;51.794;21.590;2023-02-03T10:30:35;99886.01;;;1.38;80.59
51526;BME280;37611;51.794;21.590;2023-02-03T10:34:15;99870.45;;;1.31;80.73
51526;BME280;37611;51.794;21.590;2023-02-03T10:42:37;99845.78;;;1.33;81.02
51526;BME280;37611;51.794;21.590;2023-02-03T10:46:57;99836.10;;;1.36;81.38
51526;BME280;37611;51.794;21.590;2023-02-03T10:51:00;99825.89;;;1.47;81.57
51526;BME280;37611;51.794;21.590;2023-02-03T10:55:29;99818.05;;;1.56;81.32
51526;BME280;37611;51.794;21.590;2023-02-03T10:59:37;99808.91;;;1.46;79.81
51526;BME280;37611;51.794;21.590;2023-02-03T11:03:42;99798.63;;;1.42;80.78
51526;BME280;37611;51.794;21.590;2023-02-03T11:07:45;99785.70;;;1.53;81.13
51526;BME280;37611;51.794;21.590;2023-02-03T11:11:47;99776.59;;;1.70;80.81
51526;BME280;37611;51.794;21.590;2023-02-03T11:16:20;99760.60;;;1.82;80.52
51526;BME280;37611;51.794;21.590;2023-02-03T11:20:22;99735.18;;;1.95;80.38
51526;BME280;37611;51.794;21.590;2023-02-03T11:24:30;99728.56;;;2.12;81.03
51526;BME280;37611;51.794;21.590;2023-02-03T11:28:33;99718.89;;;2.04;79.44
51526;BME280;37611;51.794;21.590;2023-02-03T11:32:39;99703.67;;;1.94;79.08
51526;BME280;37611;51.794;21.590;2023-02-03T11:36:42;99692.34;;;1.88;79.17
51526;BME280;37611;51.794;21.590;2023-02-03T11:40:43;99681.46;;;1.83;78.82
51526;BME280;37611;51.794;21.590;2023-02-03T11:44:45;99665.33;;;1.87;78.94
51526;BME280;37611;51.794;21.590;2023-02-03T11:48:55;99646.92;;;1.83;79.03
51526;BME280;37611;51.794;21.590;2023-02-03T11:57:43;99620.80;;;1.54;79.31
51526;BME280;37611;51.794;21.590;2023-02-03T12:06:39;99592.98;;;1.27;80.97
51526;BME280;37611;51.794;21.590;2023-02-03T12:32:37;99514.42;;;0.71;83.77
51526;BME280;37611;51.794;21.590;2023-02-03T12:36:58;99492.07;;;0.73;84.27
51526;BME280;37611;51.794;21.590;2023-02-03T12:41:09;99473.65;;;0.73;84.16
51526;BME280;37611;51.794;21.590;2023-02-03T12:45:17;99468.59;;;0.71;84.77
51526;BME280;37611;51.794;21.590;2023-02-03T12:53:32;99458.13;;;0.68;85.30
51526;BME280;37611;51.794;21.590;2023-02-03T12:57:43;99448.77;;;0.69;85.91
51526;BME280;37611;51.794;21.590;2023-02-03T13:01:51;99447.53;;;0.64;86.52
51526;BME280;37611;51.794;21.590;2023-02-03T13:10:44;99430.36;;;0.58;86.35
51526;BME280;37611;51.794;21.590;2023-02-03T13:14:53;99418.74;;;0.49;86.99
51526;BME280;37611;51.794;21.590;2023-02-03T13:19:04;99409.79;;;0.44;87.46
51526;BME280;37611;51.794;21.590;2023-02-03T13:23:12;99393.98;;;0.41;88.07
51526;BME280;37611;51.794;21.590;2023-02-03T13:40:18;99322.61;;;0.44;89.05
51526;BME280;37611;51.794;21.590;2023-02-03T13:44:26;99301.32;;;0.43;89.07
51526;BME280;37611;51.794;21.590;2023-02-03T13:48:31;99288.42;;;0.40;89.16
51526;BME280;37611;51.794;21.590;2023-02-03T13:52:37;99278.16;;;0.42;89.21
51526;BME280;37611;51.794;21.590;2023-02-03T13:56:41;99267.14;;;0.39;89.35
51526;BME280;37611;51.794;21.590;2023-02-03T14:04:57;99246.30;;;0.39;89.61
51526;BME280;37611;51.794;21.590;2023-02-03T14:08:59;99232.98;;;0.38;89.73
51526;BME280;37611;51.794;21.590;2023-02-03T14:13:01;99223.80;;;0.31;90.04
51526;BME280;37611;51.794;21.590;2023-02-03T14:25:57;99206.19;;;0.05;94.20
51526;BME280;37611;51.794;21.590;2023-02-03T14:30:07;99200.42;;;-0.02;95.73
51526;BME280;37611;51.794;21.590;2023-02-03T14:34:10;99192.69;;;-0.05;97.13
51526;BME280;37611;51.794;21.590;2023-02-03T14:38:15;99186.98;;;-0.09;98.44
51526;BME280;37611;51.794;21.590;2023-02-03T14:46:52;99173.85;;;-0.34;100.00
51526;BME280;37611;51.794;21.590;2023-02-03T14:59:22;99147.73;;;-0.62;100.00
51526;BME280;37611;51.794;21.590;2023-02-03T15:03:26;99137.64;;;-0.65;100.00
51526;BME280;37611;51.794;21.590;2023-02-03T15:07:47;99130.16;;;-0.69;100.00
51526;BME280;37611;51.794;21.590;2023-02-03T15:11:50;99121.48;;;-0.70;100.00
51526;BME280;37611;51.794;21.590;2023-02-03T15:15:54;99116.86;;;-0.73;100.00
51526;BME280;37611;51.794;21.590;2023-02-03T15:19:57;99107.11;;;-0.77;100.00
51526;BME280;37611;51.794;21.590;2023-02-03T15:24:01;99098.84;;;-0.82;100.00
51526;BME280;37611;51.794;21.590;2023-02-03T15:28:11;99094.30;;;-0.86;100.00
51526;BME280;37611;51.794;21.590;2023-02-03T15:32:35;99087.66;;;-0.87;100.00
51526;BME280;37611;51.794;21.590;2023-02-03T15:36:48;99083.12;;;-0.86;100.00
51526;BME280;37611;51.794;21.590;2023-02-03T15:40:53;99074.92;;;-0.82;100.00
51526;BME280;37611;51.794;21.590;2023-02-03T15:49:38;99066.06;;;-0.83;100.00
51526;BME280;37611;51.794;21.590;2023-02-03T15:53:47;99062.93;;;-0.85;100.00
51526;BME280;37611;51.794;21.590;2023-02-03T15:57:49;99058.93;;;-0.86;100.00
51526;BME280;37611;51.794;21.590;2023-02-03T16:01:52;99045.66;;;-0.89;100.00
51526;BME280;37611;51.794;21.590;2023-02-03T16:05:54;99045.34;;;-0.91;100.00
51526;BME280;37611;51.794;21.590;2023-02-03T16:09:57;99037.02;;;-0.90;100.00
51526;BME280;37611;51.794;21.590;2023-02-03T16:14:09;99029.48;;;-0.93;100.00
51526;BME280;37611;51.794;21.590;2023-02-03T16:18:16;99028.00;;;-0.94;100.00
51526;BME280;37611;51.794;21.590;2023-02-03T16:22:30;99022.86;;;-0.92;100.00
51526;BME280;37611;51.794;21.590;2023-02-03T16:26:33;99008.45;;;-0.90;100.00
51526;BME280;37611;51.794;21.590;2023-02-03T16:30:51;99001.77;;;-0.90;100.00
51526;BME280;37611;51.794;21.590;2023-02-03T16:35:13;99002.02;;;-0.94;100.00
51526;BME280;37611;51.794;21.590;2023-02-03T16:39:33;98998.16;;;-0.97;100.00
51526;BME280;37611;51.794;21.590;2023-02-03T16:43:53;98986.65;;;-1.00;100.00
51526;BME280;37611;51.794;21.590;2023-02-03T16:48:13;98980.41;;;-1.02;100.00
51526;BME280;37611;51.794;21.590;2023-02-03T16:52:34;98973.79;;;-1.03;100.00
51526;BME280;37611;51.794;21.590;2023-02-03T16:56:36;98968.65;;;-1.06;100.00
51526;BME280;37611;51.794;21.590;2023-02-03T17:00:43;98962.02;;;-1.07;100.00
51526;BME280;37611;51.794;21.590;2023-02-03T17:04:45;98955.89;;;-1.08;100.00
51526;BME280;37611;51.794;21.590;2023-02-03T17:08:46;98948.86;;;-1.06;100.00
51526;BME280;37611;51.794;21.590;2023-02-03T17:12:50;98938.18;;;-1.08;100.00
51526;BME280;37611;51.794;21.590;2023-02-03T17:16:52;98932.89;;;-1.08;100.00
51526;BME280;37611;51.794;21.590;2023-02-03T17:20:54;98925.59;;;-1.09;100.00
51526;BME280;37611;51.794;21.590;2023-02-03T17:24:56;98912.64;;;-1.08;100.00
51526;BME280;37611;51.794;21.590;2023-02-03T17:28:57;98909.08;;;-1.12;100.00
51526;BME280;37611;51.794;21.590;2023-02-03T17:33:06;98915.56;;;-1.16;100.00
51526;BME280;37611;51.794;21.590;2023-02-03T17:37:13;98916.56;;;-1.18;100.00
51526;BME280;37611;51.794;21.590;2023-02-03T17:41:20;98913.21;;;-1.17;100.00
51526;BME280;37611;51.794;21.590;2023-02-03T17:45:22;98914.48;;;-1.13;100.00
51526;BME280;37611;51.794;21.590;2023-02-03T17:49:24;98916.65;;;-1.12;100.00
51526;BME280;37611;51.794;21.590;2023-02-03T17:53:25;98910.75;;;-1.11;100.00
51526;BME280;37611;51.794;21.590;2023-02-03T17:57:27;98907.77;;;-1.10;100.00
51526;BME280;37611;51.794;21.590;2023-02-03T18:01:29;98908.19;;;-1.09;100.00
51526;BME280;37611;51.794;21.590;2023-02-03T18:05:32;98912.38;;;-1.10;100.00
51526;BME280;37611;51.794;21.590;2023-02-03T18:09:35;98911.21;;;-1.15;100.00
51526;BME280;37611;51.794;21.590;2023-02-03T18:13:39;98909.27;;;-1.19;100.00
51526;BME280;37611;51.794;21.590;2023-02-03T18:17:41;98904.70;;;-1.18;100.00
51526;BME280;37611;51.794;21.590;2023-02-03T18:21:43;98909.45;;;-1.14;100.00
51526;BME280;37611;51.794;21.590;2023-02-03T18:25:51;98909.98;;;-1.10;100.00
51526;BME280;37611;51.794;21.590;2023-02-03T18:29:53;98913.42;;;-1.07;100.00
51526;BME280;37611;51.794;21.590;2023-02-03T18:33:55;98917.07;;;-1.06;100.00
51526;BME280;37611;51.794;21.590;2023-02-03T18:37:57;98921.21;;;-1.06;100.00
51526;BME280;37611;51.794;21.590;2023-02-03T18:41:58;98921.28;;;-1.07;100.00
51526;BME280;37611;51.794;21.590;2023-02-03T18:46:09;98922.38;;;-1.07;100.00
51526;BME280;37611;51.794;21.590;2023-02-03T18:50:11;98935.27;;;-1.07;100.00
51526;BME280;37611;51.794;21.590;2023-02-03T18:54:12;98945.69;;;-1.04;100.00
51526;BME280;37611;51.794;21.590;2023-02-03T18:58:14;98939.70;;;-1.05;100.00
51526;BME280;37611;51.794;21.590;2023-02-03T19:02:16;98930.95;;;-1.10;100.00
51526;BME280;37611;51.794;21.590;2023-02-03T19:06:18;98934.66;;;-1.14;100.00
51526;BME280;37611;51.794;21.590;2023-02-03T19:10:19;98932.79;;;-1.14;100.00
51526;BME280;37611;51.794;21.590;2023-02-03T19:14:21;98940.16;;;-1.14;100.00
51526;BME280;37611;51.794;21.590;2023-02-03T19:18:23;98941.83;;;-1.10;100.00
51526;BME280;37611;51.794;21.590;2023-02-03T19:22:25;98940.05;;;-1.10;100.00
51526;BME280;37611;51.794;21.590;2023-02-03T19:26:27;98942.16;;;-1.10;100.00
51526;BME280;37611;51.794;21.590;2023-02-03T19:30:30;98945.14;;;-1.14;100.00
51526;BME280;37611;51.794;21.590;2023-02-03T19:34:32;98940.74;;;-1.10;100.00
51526;BME280;37611;51.794;21.590;2023-02-03T19:38:34;98950.73;;;-1.08;100.00
51526;BME280;37611;51.794;21.590;2023-02-03T19:42:36;98949.70;;;-1.05;100.00
51526;BME280;37611;51.794;21.590;2023-02-03T19:46:38;98949.91;;;-1.08;100.00
51526;BME280;37611;51.794;21.590;2023-02-03T19:50:42;98950.41;;;-1.08;100.00
51526;BME280;37611;51.794;21.590;2023-02-03T19:54:46;98958.77;;;-1.07;100.00
51526;BME280;37611;51.794;21.590;2023-02-03T19:58:48;98955.42;;;-1.04;100.00
51526;BME280;37611;51.794;21.590;2023-02-03T20:02:52;98959.13;;;-1.02;100.00
51526;BME280;37611;51.794;21.590;2023-02-03T20:06:54;98962.16;;;-0.99;100.00
51526;BME280;37611;51.794;21.590;2023-02-03T20:10:56;98962.50;;;-0.94;100.00
51526;BME280;37611;51.794;21.590;2023-02-03T20:14:58;98956.98;;;-0.89;100.00
51526;BME280;37611;51.794;21.590;2023-02-03T20:19:03;98955.31;;;-0.84;100.00
51526;BME280;37611;51.794;21.590;2023-02-03T20:23:05;98949.29;;;-0.87;100.00
51526;BME280;37611;51.794;21.590;2023-02-03T20:27:06;98942.28;;;-0.90;100.00
51526;BME280;37611;51.794;21.590;2023-02-03T20:31:08;98939.94;;;-0.93;100.00
51526;BME280;37611;51.794;21.590;2023-02-03T20:35:10;98945.45;;;-0.93;100.00
51526;BME280;37611;51.794;21.590;2023-02-03T20:39:18;98952.74;;;-0.92;100.00
51526;BME280;37611;51.794;21.590;2023-02-03T20:43:23;98950.79;;;-0.88;100.00
51526;BME280;37611;51.794;21.590;2023-02-03T20:47:29;98946.67;;;-0.86;100.00
51526;BME280;37611;51.794;21.590;2023-02-03T20:51:32;98951.27;;;-0.88;100.00
51526;BME280;37611;51.794;21.590;2023-02-03T20:55:34;98956.95;;;-0.86;100.00
51526;BME280;37611;51.794;21.590;2023-02-03T20:59:36;98968.58;;;-0.85;100.00
51526;BME280;37611;51.794;21.590;2023-02-03T21:03:39;98974.25;;;-0.87;100.00
51526;BME280;37611;51.794;21.590;2023-02-03T21:07:59;98977.23;;;-0.86;100.00
51526;BME280;37611;51.794;21.590;2023-02-03T21:12:01;98987.68;;;-0.83;100.00
51526;BME280;37611;51.794;21.590;2023-02-03T21:16:18;98984.81;;;-0.81;100.00
51526;BME280;37611;51.794;21.590;2023-02-03T21:20:28;98978.92;;;-0.78;100.00
51526;BME280;37611;51.794;21.590;2023-02-03T21:24:33;98988.82;;;-0.79;100.00
51526;BME280;37611;51.794;21.590;2023-02-03T21:28:39;98992.40;;;-0.81;100.00
51526;BME280;37611;51.794;21.590;2023-02-03T21:32:41;98993.63;;;-0.84;100.00
51526;BME280;37611;51.794;21.590;2023-02-03T21:36:44;98996.79;;;-0.85;100.00
51526;BME280;37611;51.794;21.590;2023-02-03T21:40:47;98997.29;;;-0.85;100.00
51526;BME280;37611;51.794;21.590;2023-02-03T21:44:52;98998.77;;;-0.84;100.00
51526;BME280;37611;51.794;21.590;2023-02-03T21:48:56;99012.84;;;-0.86;100.00
51526;BME280;37611;51.794;21.590;2023-02-03T21:53:23;99027.06;;;-0.88;100.00
51526;BME280;37611;51.794;21.590;2023-02-03T21:57:25;99028.51;;;-0.89;100.00
51526;BME280;37611;51.794;21.590;2023-02-03T22:01:33;99020.46;;;-0.89;100.00
51526;BME280;37611;51.794;21.590;2023-02-03T22:05:36;99015.33;;;-0.87;100.00
51526;BME280;37611;51.794;21.590;2023-02-03T22:09:38;99013.42;;;-0.90;100.00
51526;BME280;37611;51.794;21.590;2023-02-03T22:13:40;99025.77;;;-0.86;100.00
51526;BME280;37611;51.794;21.590;2023-02-03T22:17:42;99030.29;;;-0.85;100.00
51526;BME280;37611;51.794;21.590;2023-02-03T22:21:44;99036.48;;;-0.90;100.00
51526;BME280;37611;51.794;21.590;2023-02-03T22:25:48;99044.63;;;-0.94;100.00
51526;BME280;37611;51.794;21.590;2023-02-03T22:29:50;99044.52;;;-0.97;100.00
51526;BME280;37611;51.794;21.590;2023-02-03T22:33:52;99045.96;;;-0.99;100.00
51526;BME280;37611;51.794;21.590;2023-02-03T22:37:53;99053.61;;;-1.02;100.00
51526;BME280;37611;51.794;21.590;2023-02-03T22:41:55;99066.23;;;-1.01;100.00
51526;BME280;37611;51.794;21.590;2023-02-03T22:45:57;99081.85;;;-1.01;100.00
51526;BME280;37611;51.794;21.590;2023-02-03T22:49:58;99093.73;;;-0.98;100.00
51526;BME280;37611;51.794;21.590;2023-02-03T22:54:00;99097.49;;;-1.01;100.00
51526;BME280;37611;51.794;21.590;2023-02-03T22:58:03;99096.52;;;-1.04;100.00
51526;BME280;37611;51.794;21.590;2023-02-03T23:02:06;99092.25;;;-1.07;100.00
51526;BME280;37611;51.794;21.590;2023-02-03T23:06:08;99093.83;;;-1.07;100.00
51526;BME280;37611;51.794;21.590;2023-02-03T23:10:14;99090.08;;;-1.08;100.00
51526;BME280;37611;51.794;21.590;2023-02-03T23:14:16;99083.89;;;-1.13;100.00
51526;BME280;37611;51.794;21.590;2023-02-03T23:18:17;99085.61;;;-1.15;100.00